Time;durP1;ratioP1;P1;durP2;ratioP2;P2;SDS_P1;SDS_P2;PMS_P1;PMS_P2;Temp;Humidity;BMP_temperature;BMP_pressure;BME280_temperature;BME280_humidity;BME280_pressure;Samples;Min_cycle;Max_cycle;Signal;HPM_P1;HPM_P2
2023/07/03 00:00:00;;;;;;;11.77;3.00;;;15.30;72.70;;;;;;5007789;28;20288;-68
2023/07/03 00:02:26;;;;;;;12.67;2.90;;;15.30;72.40;;;;;;5007908;28;20469;-68
2023/07/03 00:04:51;;;;;;;9.43;3.03;;;15.30;72.50;;;;;;5007815;28;20860;-68
2023/07/03 00:07:17;;;;;;;13.27;3.23;;;15.30;72.30;;;;;;4991711;28;20294;-68
2023/07/03 00:09:43;;;;;;;11.87;2.80;;;15.30;72.30;;;;;;5008116;28;20045;-68
2023/07/03 00:12:10;;;;;;;13.70;3.20;;;15.30;72.40;;;;;;5006577;28;20125;-68
2023/07/03 00:14:37;;;;;;;9.13;2.60;;;15.30;72.30;;;;;;4986991;28;20046;-68
2023/07/03 00:17:03;;;;;;;11.97;3.23;;;15.30;72.40;;;;;;4993604;28;20785;-68
2023/07/03 00:19:30;;;;;;;10.77;3.40;;;15.30;72.70;;;;;;5007444;28;20273;-68
2023/07/03 00:22:00;;;;;;;14.23;3.00;;;15.30;72.50;;;;;;5007090;28;20288;-68
2023/07/03 00:24:27;;;;;;;14.50;2.70;;;15.30;72.00;;;;;;5008112;28;20308;-68
2023/07/03 00:26:54;;;;;;;11.57;2.70;;;15.30;71.80;;;;;;5007917;28;20289;-68
2023/07/03 00:29:19;;;;;;;15.40;3.73;;;15.40;71.50;;;;;;5007870;28;20289;-68
2023/07/03 00:31:45;;;;;;;11.23;2.80;;;15.40;71.10;;;;;;5008004;28;20371;-68
2023/07/03 00:34:11;;;;;;;11.33;2.33;;;15.40;70.80;;;;;;5000074;28;20529;-68
2023/07/03 00:36:36;;;;;;;13.73;2.80;;;15.50;70.80;;;;;;5007695;28;20428;-68
2023/07/03 00:39:02;;;;;;;11.87;2.97;;;15.50;70.50;;;;;;5000754;28;20742;-68
2023/07/03 00:41:28;;;;;;;8.80;2.50;;;15.50;70.40;;;;;;4993057;28;20085;-68
2023/07/03 00:43:54;;;;;;;13.50;2.50;;;15.60;69.60;;;;;;5008015;28;20089;-68
2023/07/03 00:46:20;;;;;;;8.97;1.77;;;15.60;69.40;;;;;;5006991;28;20042;-68
2023/07/03 00:48:46;;;;;;;8.17;2.73;;;15.60;67.40;;;;;;5007122;28;20449;-68
2023/07/03 00:51:14;;;;;;;6.87;1.80;;;15.70;67.70;;;;;;5007655;28;20041;-68
2023/07/03 00:53:39;;;;;;;7.97;2.33;;;15.60;67.90;;;;;;5006736;28;20372;-68
2023/07/03 00:56:06;;;;;;;9.90;1.77;;;15.60;67.30;;;;;;5009135;28;20761;-68
2023/07/03 00:58:32;;;;;;;8.97;2.00;;;15.60;67.20;;;;;;4989274;28;20092;-68
2023/07/03 01:01:13;;;;;;;9.20;1.83;;;15.60;67.20;;;;;;5007408;28;20363;-68
2023/07/03 01:03:43;;;;;;;9.37;1.57;;;15.60;66.40;;;;;;4989903;28;20307;-68
2023/07/03 01:06:18;;;;;;;7.77;2.03;;;15.60;66.60;;;;;;4993467;28;20638;-68
2023/07/03 01:08:51;;;;;;;5.93;1.57;;;15.60;66.30;;;;;;4999868;28;20760;-68
2023/07/03 01:11:20;;;;;;;7.90;2.07;;;15.50;66.40;;;;;;5006956;28;20621;-68
2023/07/03 01:13:49;;;;;;;7.93;1.53;;;15.50;66.50;;;;;;5006229;28;20293;-68
2023/07/03 01:16:16;;;;;;;8.37;2.13;;;15.50;65.90;;;;;;5000237;28;20780;-68
2023/07/03 01:18:44;;;;;;;11.60;2.00;;;15.50;65.90;;;;;;5003463;28;20776;-68
2023/07/03 01:21:22;;;;;;;8.97;1.87;;;15.40;65.00;;;;;;4996116;28;20289;-68
2023/07/03 01:24:04;;;;;;;9.10;1.87;;;15.50;64.30;;;;;;5006431;28;20307;-69
2023/07/03 01:26:31;;;;;;;8.57;1.50;;;15.50;64.00;;;;;;5006564;28;20399;-69
2023/07/03 01:28:59;;;;;;;7.97;1.37;;;15.40;64.50;;;;;;4984683;28;20372;-69
2023/07/03 01:31:28;;;;;;;10.80;1.80;;;15.40;64.70;;;;;;4985338;28;20348;-69
2023/07/03 01:33:55;;;;;;;8.30;1.47;;;15.40;64.70;;;;;;5004288;28;20289;-69
2023/07/03 01:36:23;;;;;;;7.90;1.60;;;15.30;64.50;;;;;;4990620;28;20299;-69
2023/07/03 01:38:50;;;;;;;7.60;1.73;;;15.30;63.80;;;;;;4985465;28;20293;-69
2023/07/03 01:41:17;;;;;;;10.10;1.77;;;15.30;64.20;;;;;;4994736;28;20281;-69
2023/07/03 01:43:45;;;;;;;10.00;1.53;;;15.20;63.80;;;;;;4986438;28;20388;-68
2023/07/03 01:46:11;;;;;;;6.80;1.70;;;15.20;64.10;;;;;;5002914;28;20277;-68
2023/07/03 01:48:36;;;;;;;9.93;2.10;;;15.10;64.20;;;;;;5005960;28;20372;-68
2023/07/03 01:51:06;;;;;;;10.77;1.93;;;15.00;64.30;;;;;;5005610;28;20371;-68
2023/07/03 01:53:46;;;;;;;7.83;2.10;;;14.90;64.60;;;;;;5004433;28;20038;-68
2023/07/03 01:56:30;;;;;;;8.00;1.50;;;14.90;64.80;;;;;;4986278;28;20705;-69
2023/07/03 01:59:04;;;;;;;9.03;1.67;;;14.80;65.00;;;;;;5002883;28;20360;-69
2023/07/03 02:01:57;;;;;;;9.50;1.80;;;14.70;65.40;;;;;;5000718;28;20284;-69
2023/07/03 02:04:38;;;;;;;13.70;2.00;;;14.60;65.30;;;;;;5005694;28;20309;-68
2023/07/03 02:07:05;;;;;;;8.37;1.63;;;14.50;65.80;;;;;;5004124;28;20300;-68
2023/07/03 02:09:32;;;;;;;12.73;2.30;;;14.40;66.30;;;;;;4999952;28;20285;-68
2023/07/03 02:11:57;;;;;;;13.13;2.00;;;14.30;66.60;;;;;;5005961;28;20653;-68
2023/07/03 02:14:24;;;;;;;8.20;1.57;;;14.20;66.80;;;;;;4987429;28;20297;-69
2023/07/03 02:16:53;;;;;;;13.10;1.77;;;14.10;67.00;;;;;;5005859;28;20050;-69
2023/07/03 02:19:28;;;;;;;9.83;1.70;;;14.00;67.40;;;;;;5003164;28;20788;-69
2023/07/03 02:21:57;;;;;;;9.50;1.75;;;14.00;67.70;;;;;;5006415;28;20296;-69
2023/07/03 02:24:23;;;;;;;10.63;1.70;;;13.90;68.10;;;;;;4996571;28;20045;-69
2023/07/03 02:26:50;;;;;;;7.30;1.60;;;13.80;68.60;;;;;;4986214;28;20820;-69
2023/07/03 02:29:16;;;;;;;9.03;1.47;;;13.70;69.00;;;;;;5005251;28;20299;-69
2023/07/03 02:31:42;;;;;;;11.30;1.70;;;13.60;69.20;;;;;;4990779;28;20392;-69
2023/07/03 02:34:08;;;;;;;14.43;1.77;;;13.50;69.80;;;;;;4989314;28;20636;-68
2023/07/03 02:36:38;;;;;;;12.80;2.30;;;13.50;70.10;;;;;;5002379;28;20111;-68
2023/07/03 02:39:05;;;;;;;10.37;2.17;;;13.40;70.10;;;;;;5004975;28;20294;-68
2023/07/03 02:41:32;;;;;;;8.67;1.90;;;13.40;70.70;;;;;;4987576;28;20277;-68
2023/07/03 02:43:57;;;;;;;10.60;2.23;;;13.30;70.90;;;;;;5005839;28;20312;-68
2023/07/03 02:46:23;;;;;;;8.43;1.60;;;13.30;71.40;;;;;;4989219;28;20293;-68
2023/07/03 02:48:49;;;;;;;13.40;1.97;;;13.30;71.40;;;;;;5000061;28;20042;-68
2023/07/03 02:51:14;;;;;;;9.60;1.77;;;13.30;71.50;;;;;;5004601;28;20041;-68
2023/07/03 02:53:41;;;;;;;12.63;1.83;;;13.20;71.80;;;;;;5010689;28;20103;-68
2023/07/03 02:56:07;;;;;;;12.07;2.00;;;13.20;71.90;;;;;;4994721;28;20045;-68
2023/07/03 02:58:34;;;;;;;8.47;1.50;;;13.10;72.10;;;;;;5010999;28;20560;-68
2023/07/03 03:01:01;;;;;;;9.13;1.83;;;13.10;72.70;;;;;;5001385;28;20836;-69
2023/07/03 03:03:27;;;;;;;12.67;1.87;;;13.00;72.60;;;;;;5008566;28;20292;-68
2023/07/03 03:05:55;;;;;;;9.30;1.83;;;12.90;73.20;;;;;;5008722;28;20372;-68
2023/07/03 03:08:21;;;;;;;12.37;2.17;;;12.90;73.40;;;;;;5010912;28;20292;-69
2023/07/03 03:10:48;;;;;;;10.70;1.57;;;12.80;74.20;;;;;;4994856;28;20375;-69
2023/07/03 03:13:13;;;;;;;11.30;2.20;;;12.80;74.90;;;;;;5006600;28;20289;-69
2023/07/03 03:15:40;;;;;;;10.80;2.07;;;12.80;75.50;;;;;;4999867;28;20316;-69
2023/07/03 03:18:06;;;;;;;11.90;2.20;;;12.80;75.90;;;;;;5010030;28;20050;-69
2023/07/03 03:20:31;;;;;;;9.77;2.10;;;12.80;75.60;;;;;;5000874;28;20304;-69
2023/07/03 03:22:58;;;;;;;11.13;1.80;;;12.80;75.80;;;;;;4986654;28;20053;-69
2023/07/03 03:25:24;;;;;;;9.63;1.70;;;12.80;76.20;;;;;;4986015;28;20057;-69
2023/07/03 03:27:49;;;;;;;8.53;1.53;;;12.70;75.90;;;;;;5007349;28;20289;-69
2023/07/03 03:30:15;;;;;;;17.87;2.67;;;12.70;76.60;;;;;;4991250;28;20103;-69
2023/07/03 03:32:42;;;;;;;12.90;2.63;;;12.70;76.70;;;;;;4993016;28;20492;-69
2023/07/03 03:35:08;;;;;;;11.47;2.60;;;12.80;77.10;;;;;;4992766;28;20057;-69
2023/07/03 03:37:34;;;;;;;11.17;2.10;;;12.80;77.40;;;;;;4993970;28;20741;-69
2023/07/03 03:40:00;;;;;;;12.50;2.37;;;12.80;77.50;;;;;;4999530;28;20296;-69
2023/07/03 03:42:25;;;;;;;10.50;1.60;;;12.80;77.70;;;;;;5009581;28;20052;-69
2023/07/03 03:44:51;;;;;;;7.80;1.73;;;12.80;78.10;;;;;;5010488;28;20125;-69
2023/07/03 03:47:19;;;;;;;8.33;2.00;;;12.80;78.10;;;;;;4990134;28;20034;-69
2023/07/03 03:49:45;;;;;;;12.87;2.23;;;12.70;78.80;;;;;;5007691;28;20053;-69
2023/07/03 03:52:10;;;;;;;9.33;1.70;;;12.80;78.90;;;;;;5010359;28;20276;-69
2023/07/03 03:54:36;;;;;;;11.47;2.10;;;12.80;78.90;;;;;;4991962;28;20077;-69
2023/07/03 03:57:02;;;;;;;14.50;2.80;;;12.80;78.80;;;;;;5008846;28;20394;-69
2023/07/03 03:59:28;;;;;;;10.20;2.00;;;12.80;79.50;;;;;;5006864;28;20053;-69
2023/07/03 04:01:54;;;;;;;12.00;2.10;;;12.80;79.30;;;;;;5010099;28;20653;-69
2023/07/03 04:04:19;;;;;;;16.00;2.57;;;12.90;79.80;;;;;;5004711;28;20042;-69
2023/07/03 04:06:45;;;;;;;8.93;2.10;;;13.00;80.00;;;;;;4992026;28;20053;-69
2023/07/03 04:09:11;;;;;;;11.27;2.30;;;13.00;80.40;;;;;;5007403;28;20778;-69
2023/07/03 04:11:37;;;;;;;14.50;2.17;;;13.10;80.40;;;;;;5004626;28;20061;-70
2023/07/03 04:14:03;;;;;;;8.73;2.27;;;13.10;80.40;;;;;;5005071;28;20293;-70
2023/07/03 04:16:30;;;;;;;10.57;1.90;;;13.20;79.90;;;;;;4989563;28;20057;-70
2023/07/03 04:18:56;;;;;;;11.03;1.93;;;13.30;80.20;;;;;;5009930;28;20136;-70
2023/07/03 04:21:22;;;;;;;11.07;1.90;;;13.30;80.10;;;;;;5007259;28;20376;-70
2023/07/03 04:23:48;;;;;;;11.90;2.00;;;13.40;80.00;;;;;;5009263;28;20037;-70
2023/07/03 04:26:14;;;;;;;14.70;2.20;;;13.50;80.50;;;;;;5007112;28;20339;-70
2023/07/03 04:28:40;;;;;;;13.13;2.37;;;13.50;80.70;;;;;;5007076;28;20420;-70
2023/07/03 04:31:06;;;;;;;9.37;2.63;;;13.60;80.40;;;;;;5005698;28;20311;-69
2023/07/03 04:33:32;;;;;;;11.63;2.47;;;13.70;80.30;;;;;;4993532;28;20300;-69
2023/07/03 04:35:58;;;;;;;13.07;2.40;;;13.80;79.90;;;;;;4993191;28;20128;-69
2023/07/03 04:38:23;;;;;;;13.57;2.07;;;14.00;80.00;;;;;;5007225;28;20387;-70
2023/07/03 04:40:53;;;;;;;14.10;2.23;;;14.20;79.80;;;;;;4991265;28;20112;-70
2023/07/03 04:43:20;;;;;;;13.67;2.40;;;14.40;79.10;;;;;;5006865;28;20034;-70
2023/07/03 04:45:49;;;;;;;14.70;2.17;;;14.50;78.70;;;;;;4986092;28;20658;-70
2023/07/03 04:48:18;;;;;;;9.83;1.97;;;14.60;78.80;;;;;;5005696;28;20285;-70
2023/07/03 04:50:47;;;;;;;10.20;1.67;;;14.90;79.00;;;;;;5003005;28;20776;-70
2023/07/03 04:53:13;;;;;;;13.27;2.60;;;15.50;77.70;;;;;;4984889;28;20368;-70
2023/07/03 04:55:39;;;;;;;7.37;1.87;;;16.20;75.60;;;;;;4989228;28;20367;-69
2023/07/03 04:58:05;;;;;;;11.90;2.43;;;16.80;73.10;;;;;;5007394;28;20046;-69
2023/07/03 05:00:31;;;;;;;8.27;1.77;;;16.70;71.00;;;;;;4990512;28;20121;-70
2023/07/03 05:02:58;;;;;;;12.63;1.87;;;16.30;71.20;;;;;;4986816;28;20038;-70
2023/07/03 05:05:25;;;;;;;10.90;1.73;;;15.90;71.00;;;;;;4986657;28;20628;-70
2023/07/03 05:07:51;;;;;;;8.53;2.20;;;15.60;71.80;;;;;;5006146;28;20284;-70
2023/07/03 05:10:18;;;;;;;8.60;2.20;;;15.40;72.70;;;;;;5004810;28;20292;-70
2023/07/03 05:12:44;;;;;;;8.00;1.80;;;15.70;72.50;;;;;;4993447;28;20366;-68
2023/07/03 05:15:12;;;;;;;10.63;1.37;;;16.60;70.90;;;;;;4988941;28;20281;-68
2023/07/03 05:17:38;;;;;;;6.90;1.57;;;17.50;67.40;;;;;;5009123;28;20304;-69
2023/07/03 05:20:10;;;;;;;10.03;1.20;;;18.10;65.30;;;;;;4991841;28;20331;-69
2023/07/03 05:22:41;;;;;;;6.40;1.33;;;18.90;63.50;;;;;;5006546;28;20323;-70
2023/07/03 05:25:08;;;;;;;4.50;1.13;;;19.60;61.00;;;;;;5008128;28;20305;-70
2023/07/03 05:27:34;;;;;;;7.77;1.07;;;19.90;60.60;;;;;;5008749;28;20311;-70
2023/07/03 05:30:00;;;;;;;10.07;1.60;;;20.50;60.00;;;;;;5008199;28;20311;-70
2023/07/03 05:32:26;;;;;;;11.37;1.37;;;20.90;57.70;;;;;;4990532;28;20292;-70
2023/07/03 05:34:52;;;;;;;6.23;1.03;;;20.50;58.20;;;;;;4994994;28;20141;-70
2023/07/03 05:37:18;;;;;;;7.47;0.93;;;19.60;60.90;;;;;;4983815;28;20153;-70
2023/07/03 05:39:49;;;;;;;8.97;1.50;;;18.80;62.20;;;;;;5005544;28;20046;-70
2023/07/03 05:42:19;;;;;;;9.93;1.80;;;18.10;64.60;;;;;;4998503;28;20380;-70
2023/07/03 05:44:45;;;;;;;5.40;1.20;;;17.70;66.40;;;;;;5007288;28;20331;-70
2023/07/03 05:47:12;;;;;;;9.93;1.53;;;17.30;67.50;;;;;;5008243;28;20277;-70
2023/07/03 05:49:38;;;;;;;9.93;1.33;;;17.00;68.60;;;;;;5006671;28;20313;-70
2023/07/03 05:52:04;;;;;;;8.27;1.60;;;16.90;69.70;;;;;;4991011;28;20305;-70
2023/07/03 05:54:30;;;;;;;12.43;1.70;;;17.30;70.00;;;;;;5000866;28;20037;-70
2023/07/03 05:57:04;;;;;;;9.97;1.70;;;17.40;68.80;;;;;;5008823;28;20316;-70
2023/07/03 05:59:30;;;;;;;6.07;1.10;;;17.40;68.20;;;;;;5008739;28;20288;-70
2023/07/03 06:01:56;;;;;;;10.50;2.23;;;17.20;69.00;;;;;;4990843;28;20299;-70
2023/07/03 06:04:22;;;;;;;13.63;2.13;;;17.60;68.50;;;;;;4982050;28;20820;-70
2023/07/03 06:06:51;;;;;;;10.57;2.00;;;17.90;67.80;;;;;;4999431;28;20037;-70
2023/07/03 06:09:16;;;;;;;9.57;1.57;;;17.90;67.50;;;;;;5006227;28;20285;-70
2023/07/03 06:11:42;;;;;;;8.73;1.50;;;17.70;66.90;;;;;;5008041;28;20289;-70
2023/07/03 06:14:17;;;;;;;8.07;1.80;;;17.50;67.60;;;;;;5006620;28;20046;-70
2023/07/03 06:16:43;;;;;;;6.97;1.15;;;17.30;68.40;;;;;;5000261;28;20049;-70
2023/07/03 06:19:10;;;;;;;7.80;1.20;;;17.20;67.60;;;;;;5002080;28;20402;-70
2023/07/03 06:21:36;;;;;;;11.10;1.80;;;17.60;67.00;;;;;;5004117;28;20286;-70
2023/07/03 06:24:02;;;;;;;7.27;1.03;;;18.00;65.70;;;;;;5002154;28;20835;-70
2023/07/03 06:26:31;;;;;;;7.63;1.20;;;18.60;65.20;;;;;;5007845;28;20067;-70
2023/07/03 06:28:57;;;;;;;7.40;1.43;;;18.90;61.30;;;;;;5007867;28;20095;-70
2023/07/03 06:31:23;;;;;;;3.23;0.70;;;18.80;61.60;;;;;;4991208;28;21247;-70
2023/07/03 06:33:48;;;;;;;3.73;0.53;;;18.40;60.70;;;;;;5000747;28;20770;-69
2023/07/03 06:36:20;;;;;;;4.47;0.60;;;18.10;62.10;;;;;;5000970;28;20049;-69
2023/07/03 06:38:50;;;;;;;6.43;1.27;;;18.00;62.30;;;;;;4991351;28;20049;-69
2023/07/03 06:41:16;;;;;;;6.13;0.70;;;18.10;62.50;;;;;;4997077;28;21173;-69
2023/07/03 06:43:42;;;;;;;5.97;0.70;;;18.70;60.30;;;;;;5005280;28;20281;-70
2023/07/03 06:46:10;;;;;;;4.37;0.60;;;18.80;58.70;;;;;;4984228;28;20431;-70
2023/07/03 06:48:36;;;;;;;7.37;0.77;;;18.60;58.70;;;;;;4987471;28;20041;-70
2023/07/03 06:51:07;;;;;;;4.60;0.80;;;18.50;59.40;;;;;;5000715;28;20289;-70
2023/07/03 06:53:33;;;;;;;6.03;0.97;;;18.30;58.60;;;;;;4980523;28;20880;-70
2023/07/03 06:56:00;;;;;;;7.50;0.80;;;18.10;59.60;;;;;;5004921;28;20318;-70
2023/07/03 06:58:27;;;;;;;5.33;1.10;;;17.80;60.10;;;;;;4979622;28;20391;-69
2023/07/03 07:00:53;;;;;;;3.47;1.10;;;17.60;60.70;;;;;;4998342;28;20285;-69
2023/07/03 07:03:19;;;;;;;4.93;0.73;;;17.40;62.00;;;;;;4991279;28;20301;-69
2023/07/03 07:05:45;;;;;;;8.67;1.37;;;17.30;62.40;;;;;;4979386;28;20044;-70
2023/07/03 07:08:16;;;;;;;6.27;1.20;;;17.40;63.00;;;;;;4976015;28;20699;-70
2023/07/03 07:10:43;;;;;;;7.47;1.40;;;17.50;63.10;;;;;;4987207;28;20364;-69
2023/07/03 07:13:10;;;;;;;7.00;0.93;;;17.80;63.20;;;;;;5006266;28;20376;-70
2023/07/03 07:15:37;;;;;;;8.03;1.13;;;17.90;63.20;;;;;;5005150;28;20303;-70
2023/07/03 07:18:05;;;;;;;7.73;1.30;;;17.70;64.30;;;;;;4978727;28;20408;-70
2023/07/03 07:20:36;;;;;;;9.37;1.37;;;17.80;65.40;;;;;;4980861;28;20272;-70
2023/07/03 07:23:02;;;;;;;6.13;1.40;;;18.00;63.70;;;;;;4995437;28;20668;-70
2023/07/03 07:25:27;;;;;;;9.03;1.43;;;18.10;63.40;;;;;;5003792;28;20305;-70
2023/07/03 07:27:53;;;;;;;7.43;1.20;;;18.20;62.70;;;;;;4988938;28;20672;-70
2023/07/03 07:30:19;;;;;;;6.77;1.53;;;18.30;60.40;;;;;;4990687;28;20044;-70
2023/07/03 07:32:47;;;;;;;8.97;1.10;;;18.30;59.60;;;;;;4990475;28;20042;-70
2023/07/03 07:35:14;;;;;;;9.00;1.17;;;18.40;60.50;;;;;;4994089;28;20426;-70
2023/07/03 07:37:40;;;;;;;7.40;1.00;;;18.50;60.30;;;;;;5002262;28;20767;-70
2023/07/03 07:40:07;;;;;;;5.90;0.73;;;18.60;60.00;;;;;;4997169;28;20309;-70
2023/07/03 07:42:34;;;;;;;11.53;1.57;;;18.60;59.50;;;;;;4998868;28;20048;-70
2023/07/03 07:44:59;;;;;;;5.87;1.00;;;18.60;60.40;;;;;;4981546;28;20307;-70
2023/07/03 07:47:25;;;;;;;8.37;1.10;;;18.50;59.40;;;;;;4996777;28;20290;-70
2023/07/03 07:49:51;;;;;;;6.17;1.00;;;18.30;59.70;;;;;;4997638;28;20044;-70
2023/07/03 07:52:16;;;;;;;6.00;1.20;;;18.30;59.60;;;;;;4995781;28;20546;-70
2023/07/03 07:54:42;;;;;;;7.80;1.20;;;18.20;60.00;;;;;;5001614;28;20065;-70
2023/07/03 07:57:08;;;;;;;5.57;0.83;;;18.10;61.00;;;;;;4982836;28;20045;-70
2023/07/03 07:59:35;;;;;;;11.90;1.00;;;18.20;60.80;;;;;;5003128;28;20104;-70
2023/07/03 08:02:01;;;;;;;4.87;1.10;;;18.00;60.20;;;;;;4995796;28;20606;-70
2023/07/03 08:04:27;;;;;;;5.87;1.10;;;17.90;60.60;;;;;;4998064;28;20309;-70
2023/07/03 08:06:53;;;;;;;7.20;1.00;;;17.90;61.50;;;;;;4996227;28;20289;-70
2023/07/03 08:09:21;;;;;;;6.90;0.87;;;18.20;61.50;;;;;;4980092;28;20273;-70
2023/07/03 08:11:46;;;;;;;7.37;1.00;;;18.50;60.10;;;;;;4996010;28;20097;-70
2023/07/03 08:14:12;;;;;;;8.93;1.20;;;18.80;60.10;;;;;;4995647;28;20315;-70
2023/07/03 08:16:38;;;;;;;6.67;0.80;;;19.10;59.90;;;;;;4983326;28;20048;-70
2023/07/03 08:19:03;;;;;;;4.37;0.70;;;19.20;59.00;;;;;;4994848;28;20789;-70
2023/07/03 08:21:29;;;;;;;5.00;0.90;;;19.10;57.20;;;;;;4999746;28;20132;-70
2023/07/03 08:23:55;;;;;;;6.17;0.77;;;19.00;58.20;;;;;;4998562;28;20037;-70
2023/07/03 08:26:23;;;;;;;4.10;1.00;;;19.00;57.80;;;;;;4986070;28;20045;-70
2023/07/03 08:28:49;;;;;;;6.83;1.00;;;18.80;57.70;;;;;;5010017;28;20046;-70
2023/07/03 08:31:15;;;;;;;6.97;1.27;;;18.60;59.10;;;;;;5002501;28;20042;-70
2023/07/03 08:33:41;;;;;;;5.77;0.97;;;18.40;59.30;;;;;;5007470;28;20991;-70
2023/07/03 08:36:07;;;;;;;6.63;0.90;;;18.20;60.70;;;;;;4976953;28;20297;-70
2023/07/03 08:38:32;;;;;;;6.33;0.90;;;17.90;61.90;;;;;;4985851;28;20417;-70
2023/07/03 08:41:00;;;;;;;5.30;1.30;;;17.80;62.60;;;;;;4977248;28;20052;-70
2023/07/03 08:43:42;;;;;;;6.43;1.10;;;17.70;64.50;;;;;;5002911;28;20099;-70
2023/07/03 08:46:15;;;;;;;6.40;1.50;;;17.60;65.40;;;;;;5003136;28;20293;-70
2023/07/03 08:48:42;;;;;;;6.70;1.30;;;17.50;65.40;;;;;;5001287;28;20304;-70
2023/07/03 08:51:14;;;;;;;7.00;1.17;;;17.50;65.50;;;;;;5019024;28;20368;-70
2023/07/03 08:53:42;;;;;;;7.30;0.83;;;17.70;66.70;;;;;;4993947;28;20368;-70
2023/07/03 08:56:15;;;;;;;6.10;1.37;;;17.80;65.70;;;;;;4988145;28;20393;-70
2023/07/03 08:58:41;;;;;;;6.60;1.10;;;17.80;64.80;;;;;;4987462;28;20806;-70
2023/07/03 09:01:26;;;;;;;5.43;1.20;;;17.80;64.60;;;;;;4989551;28;20371;-70
2023/07/03 09:04:13;;;;;;;5.17;0.90;;;17.90;65.20;;;;;;4979992;28;20299;-70
2023/07/03 09:07:07;;;;;;;6.63;0.97;;;18.00;65.60;;;;;;4984276;28;20323;-70
2023/07/03 09:09:54;;;;;;;7.93;1.20;;;18.10;65.40;;;;;;4998309;28;20695;-70
2023/07/03 09:12:32;;;;;;;9.93;1.27;;;18.20;66.50;;;;;;4998875;28;20285;-70
2023/07/03 09:15:04;;;;;;;7.97;1.30;;;18.10;67.30;;;;;;4998167;28;20344;-70
2023/07/03 09:17:31;;;;;;;9.57;1.90;;;17.90;69.30;;;;;;5000404;28;20391;-70
2023/07/03 09:20:01;;;;;;;5.97;1.10;;;17.50;71.30;;;;;;5000342;28;21266;-70
2023/07/03 09:22:54;;;;;;;6.30;1.03;;;17.20;71.80;;;;;;4983084;28;20292;-71
2023/07/03 09:25:35;;;;;;;6.40;1.07;;;17.10;72.70;;;;;;4974942;28;20830;-70
2023/07/03 09:28:02;;;;;;;7.20;1.57;;;17.10;72.80;;;;;;5000848;28;20317;-70
2023/07/03 09:30:28;;;;;;;6.07;1.20;;;16.90;73.70;;;;;;5002831;28;20797;-70
2023/07/03 09:32:54;;;;;;;11.10;1.57;;;16.90;74.80;;;;;;4983964;28;21008;-70
2023/07/03 09:35:21;;;;;;;7.07;1.50;;;16.90;74.40;;;;;;5000212;28;20358;-71
2023/07/03 09:37:50;;;;;;;6.80;1.47;;;16.80;74.40;;;;;;4989412;28;20080;-70
2023/07/03 09:40:25;;;;;;;10.40;1.30;;;16.80;75.20;;;;;;5000223;28;20296;-70
2023/07/03 09:42:52;;;;;;;7.67;1.10;;;16.90;76.30;;;;;;5005055;28;20281;-70
2023/07/03 09:45:20;;;;;;;9.63;1.47;;;17.00;77.20;;;;;;5003215;28;20305;-70
2023/07/03 09:47:57;;;;;;;7.57;1.10;;;17.00;74.50;;;;;;4987962;28;20335;-70
2023/07/03 09:50:28;;;;;;;7.50;1.13;;;17.00;72.50;;;;;;4996647;28;20288;-70
2023/07/03 09:52:59;;;;;;;7.07;1.57;;;17.00;69.00;;;;;;5002922;28;20281;-70
2023/07/03 09:55:26;;;;;;;7.17;0.93;;;17.00;70.70;;;;;;4987553;28;21043;-70
2023/07/03 09:57:52;;;;;;;7.50;1.30;;;17.00;72.00;;;;;;5003716;28;20312;-70
2023/07/03 10:00:22;;;;;;;8.53;1.80;;;17.10;72.70;;;;;;5000355;28;20335;-70
2023/07/03 10:02:52;;;;;;;6.43;1.00;;;17.20;72.50;;;;;;5001363;28;20128;-70
2023/07/03 10:05:26;;;;;;;3.93;1.03;;;17.30;72.60;;;;;;5006891;28;20399;-69
2023/07/03 10:08:00;;;;;;;6.67;1.17;;;17.40;72.90;;;;;;4989810;28;20293;-69
2023/07/03 10:10:33;;;;;;;7.40;1.40;;;17.50;69.10;;;;;;5007886;28;20407;-69
2023/07/03 10:13:13;;;;;;;4.60;1.10;;;17.50;66.70;;;;;;5006304;28;20792;-70
2023/07/03 10:15:41;;;;;;;11.37;1.73;;;17.50;66.10;;;;;;5005689;28;20289;-69
2023/07/03 10:18:16;;;;;;;7.50;1.07;;;17.60;66.70;;;;;;5005435;28;20634;-69
2023/07/03 10:20:45;;;;;;;6.13;0.90;;;17.70;65.70;;;;;;4987497;28;20285;-69
2023/07/03 10:23:38;;;;;;;4.80;1.17;;;17.80;64.10;;;;;;5007015;28;20161;-69
2023/07/03 10:26:18;;;;;;;4.97;0.90;;;17.90;63.80;;;;;;4999811;28;20370;-69
2023/07/03 10:28:56;;;;;;;2.90;0.87;;;18.00;62.90;;;;;;4989841;28;20703;-69
2023/07/03 10:31:56;;;;;;;6.13;1.13;;;18.10;62.00;;;;;;5008141;28;20744;-70
2023/07/03 10:34:50;;;;;;;5.07;1.00;;;18.20;61.20;;;;;;4983109;28;20371;-69
2023/07/03 10:37:19;;;;;;;4.60;0.80;;;18.20;61.30;;;;;;4977252;28;20724;-69
2023/07/03 10:39:52;;;;;;;4.10;0.80;;;18.30;62.70;;;;;;5001806;28;20285;-69
2023/07/03 10:42:47;;;;;;;7.33;0.77;;;18.40;60.60;;;;;;5005098;28;20291;-69
2023/07/03 10:45:14;;;;;;;4.87;0.90;;;18.50;60.40;;;;;;5001177;28;20312;-69
2023/07/03 10:47:58;;;;;;;5.47;1.00;;;18.60;60.70;;;;;;4985826;28;20292;-70
2023/07/03 10:50:52;;;;;;;3.13;0.43;;;18.70;59.70;;;;;;4996227;28;20289;-70
2023/07/03 10:53:39;;;;;;;3.20;0.73;;;18.50;57.10;;;;;;4993623;28;20745;-69
2023/07/03 10:56:19;;;;;;;6.70;1.07;;;18.40;57.70;;;;;;4996324;28;20287;-69
2023/07/03 10:59:06;;;;;;;3.97;0.60;;;18.20;58.50;;;;;;4995250;28;20293;-70
2023/07/03 11:01:39;;;;;;;5.20;0.60;;;18.10;58.70;;;;;;5006471;28;20339;-69
2023/07/03 11:04:25;;;;;;;4.67;0.67;;;17.90;59.20;;;;;;4986088;28;20383;-69
2023/07/03 11:07:05;;;;;;;5.20;1.10;;;17.70;60.40;;;;;;4999911;28;20347;-69
2023/07/03 11:09:42;;;;;;;9.20;1.20;;;17.70;61.30;;;;;;4986840;28;20288;-69
2023/07/03 11:12:17;;;;;;;4.63;0.90;;;17.70;61.60;;;;;;4995169;28;20808;-69
2023/07/03 11:15:06;;;;;;;7.35;0.88;;;17.90;62.10;;;;;;5009340;28;20288;-69
2023/07/03 11:17:37;;;;;;;3.60;0.70;;;18.30;61.00;;;;;;5002145;28;20049;-69
2023/07/03 11:20:04;;;;;;;4.00;0.87;;;18.60;61.20;;;;;;4994112;28;20747;-69
2023/07/03 11:22:50;;;;;;;6.10;0.87;;;18.90;59.40;;;;;;4993469;28;20281;-69
2023/07/03 11:25:23;;;;;;;7.27;1.20;;;18.70;57.90;;;;;;5005493;28;21005;-70
2023/07/03 11:28:15;;;;;;;7.47;1.47;;;18.70;58.30;;;;;;4992550;28;20665;-69
2023/07/03 11:30:42;;;;;;;5.93;1.03;;;18.80;59.30;;;;;;5007896;28;20910;-70
2023/07/03 11:33:09;;;;;;;6.00;0.83;;;18.90;60.10;;;;;;5006995;28;20915;-70
2023/07/03 11:35:35;;;;;;;6.03;1.50;;;18.90;58.40;;;;;;4990250;28;20301;-69
2023/07/03 11:38:04;;;;;;;5.23;1.20;;;18.80;58.60;;;;;;5009603;28;20811;-69
2023/07/03 11:40:38;;;;;;;5.63;1.33;;;18.80;59.00;;;;;;5008499;28;20096;-69
2023/07/03 11:43:41;;;;;;;6.40;1.08;;;18.60;55.90;;;;;;5004710;28;21052;-69
2023/07/03 11:46:27;;;;;;;10.10;1.53;;;18.30;57.70;;;;;;5006242;28;20553;-69
2023/07/03 11:48:57;;;;;;;4.40;1.10;;;18.20;58.80;;;;;;5007118;28;20297;-69
2023/07/03 11:51:35;;;;;;;5.63;1.23;;;18.20;58.00;;;;;;5009601;28;20764;-69
2023/07/03 11:54:15;;;;;;;6.33;0.87;;;18.30;58.00;;;;;;4993636;28;20285;-69
2023/07/03 11:56:41;;;;;;;5.47;0.73;;;18.30;57.70;;;;;;5000816;28;20286;-69
2023/07/03 11:59:27;;;;;;;5.53;0.80;;;18.30;58.80;;;;;;5007377;28;20296;-69
2023/07/03 12:02:14;;;;;;;5.10;0.60;;;18.50;58.00;;;;;;5004019;28;20053;-69
2023/07/03 12:04:42;;;;;;;4.30;0.70;;;18.60;57.20;;;;;;5002753;28;20305;-69
2023/07/03 12:07:09;;;;;;;5.57;0.90;;;18.70;56.60;;;;;;4991421;28;20296;-69
2023/07/03 12:09:35;;;;;;;5.23;0.63;;;18.60;55.80;;;;;;5003110;28;20343;-69
2023/07/03 12:12:02;;;;;;;6.13;0.77;;;18.50;57.20;;;;;;5009458;28;20281;-69
2023/07/03 12:14:44;;;;;;;3.50;0.70;;;18.60;57.70;;;;;;5004180;28;20042;-69
2023/07/03 12:17:19;;;;;;;5.70;1.00;;;18.60;56.40;;;;;;5003779;28;20300;-69
2023/07/03 12:19:46;;;;;;;4.10;0.60;;;18.70;55.40;;;;;;4989337;28;20281;-70
2023/07/03 12:22:14;;;;;;;4.27;0.80;;;18.70;55.40;;;;;;4993247;28;20045;-70
2023/07/03 12:24:39;;;;;;;2.97;0.80;;;18.60;55.30;;;;;;5008572;28;20813;-69
2023/07/03 12:27:07;;;;;;;5.90;0.90;;;18.40;56.00;;;;;;4993901;28;20302;-70
2023/07/03 12:29:36;;;;;;;6.97;1.00;;;18.40;56.60;;;;;;5009101;28;20184;-69
2023/07/03 12:32:08;;;;;;;5.87;0.50;;;18.30;57.40;;;;;;5007947;28;20388;-69
2023/07/03 12:34:41;;;;;;;5.93;1.43;;;18.20;57.20;;;;;;5007104;28;20389;-69
2023/07/03 12:37:13;;;;;;;4.20;0.73;;;18.40;58.40;;;;;;4985929;28;20387;-69
2023/07/03 12:39:48;;;;;;;4.17;0.80;;;18.50;58.50;;;;;;5001517;28;20894;-70
2023/07/03 12:42:22;;;;;;;6.05;0.80;;;18.70;57.30;;;;;;4984920;28;20342;-69
2023/07/03 12:44:48;;;;;;;4.07;0.73;;;18.80;56.20;;;;;;5004632;28;20041;-69
2023/07/03 12:47:16;;;;;;;6.67;1.07;;;18.80;55.70;;;;;;4996553;28;20505;-69
2023/07/03 12:50:00;;;;;;;5.43;0.70;;;18.90;56.80;;;;;;4971288;28;20721;-69
2023/07/03 12:52:31;;;;;;;5.13;1.20;;;19.00;55.00;;;;;;5002620;28;20278;-69
2023/07/03 12:54:58;;;;;;;3.33;0.83;;;18.90;55.60;;;;;;4984474;28;20369;-69